sensor_id;sensor_type;location;lat;lon;timestamp;pressure;altitude;pressure_sealevel;temperature;humidity
77954;BME280;67151;52.544;6.034;2023-05-07T00:00:04;101610;;;24.6;41.8
77954;BME280;67151;52.544;6.034;2023-05-07T00:00:19;101610;;;24.6;41.8
77954;BME280;67151;52.544;6.034;2023-05-07T00:00:34;101620;;;24.6;41.9
77954;BME280;67151;52.544;6.034;2023-05-07T00:00:49;101610;;;24.6;41.9
77954;BME280;67151;52.544;6.034;2023-05-07T00:01:04;101620;;;24.6;41.9
77954;BME280;67151;52.544;6.034;2023-05-07T00:01:19;101610;;;24.6;41.9
77954;BME280;67151;52.544;6.034;2023-05-07T00:01:34;101620;;;24.6;41.9
77954;BME280;67151;52.544;6.034;2023-05-07T00:01:49;101620;;;24.6;41.9
77954;BME280;67151;52.544;6.034;2023-05-07T00:02:04;101620;;;24.6;41.9
77954;BME280;67151;52.544;6.034;2023-05-07T00:02:19;101620;;;24.6;41.9
77954;BME280;67151;52.544;6.034;2023-05-07T00:02:34;101620;;;24.6;41.9
77954;BME280;67151;52.544;6.034;2023-05-07T00:02:49;101620;;;24.6;41.9
77954;BME280;67151;52.544;6.034;2023-05-07T00:03:04;101620;;;24.6;41.9
77954;BME280;67151;52.544;6.034;2023-05-07T00:03:19;101620;;;24.6;41.9
77954;BME280;67151;52.544;6.034;2023-05-07T00:03:34;101620;;;24.6;41.9
77954;BME280;67151;52.544;6.034;2023-05-07T00:03:49;101620;;;24.6;41.9
77954;BME280;67151;52.544;6.034;2023-05-07T00:04:04;101620;;;24.6;41.9
77954;BME280;67151;52.544;6.034;2023-05-07T00:04:19;101620;;;24.6;41.9
77954;BME280;67151;52.544;6.034;2023-05-07T00:04:34;101620;;;24.6;41.9
77954;BME280;67151;52.544;6.034;2023-05-07T00:04:49;101620;;;24.6;41.9
77954;BME280;67151;52.544;6.034;2023-05-07T00:05:04;101620;;;24.6;41.9
77954;BME280;67151;52.544;6.034;2023-05-07T00:05:19;101620;;;24.6;41.9
77954;BME280;67151;52.544;6.034;2023-05-07T00:05:34;101620;;;24.6;41.9
77954;BME280;67151;52.544;6.034;2023-05-07T00:05:49;101620;;;24.6;41.9
77954;BME280;67151;52.544;6.034;2023-05-07T00:06:04;101620;;;24.5;41.9
77954;BME280;67151;52.544;6.034;2023-05-07T00:06:19;101630;;;24.6;41.9
77954;BME280;67151;52.544;6.034;2023-05-07T00:06:34;101620;;;24.6;41.9
77954;BME280;67151;52.544;6.034;2023-05-07T00:06:49;101620;;;24.6;41.9
77954;BME280;67151;52.544;6.034;2023-05-07T00:07:04;101620;;;24.6;41.9
77954;BME280;67151;52.544;6.034;2023-05-07T00:07:19;101620;;;24.5;41.9
77954;BME280;67151;52.544;6.034;2023-05-07T00:07:34;101620;;;24.6;41.9
77954;BME280;67151;52.544;6.034;2023-05-07T00:07:49;101620;;;24.6;41.9
77954;BME280;67151;52.544;6.034;2023-05-07T00:08:04;101630;;;24.6;41.9
77954;BME280;67151;52.544;6.034;2023-05-07T00:08:19;101630;;;24.6;41.9
77954;BME280;67151;52.544;6.034;2023-05-07T00:08:34;101630;;;24.6;41.9
77954;BME280;67151;52.544;6.034;2023-05-07T00:08:49;101620;;;24.6;41.9
77954;BME280;67151;52.544;6.034;2023-05-07T00:09:04;101620;;;24.6;41.9
77954;BME280;67151;52.544;6.034;2023-05-07T00:09:19;101620;;;24.6;41.9
77954;BME280;67151;52.544;6.034;2023-05-07T00:09:34;101630;;;24.6;41.9
77954;BME280;67151;52.544;6.034;2023-05-07T00:09:49;101630;;;24.6;41.9
77954;BME280;67151;52.544;6.034;2023-05-07T00:10:04;101620;;;24.6;41.9
77954;BME280;67151;52.544;6.034;2023-05-07T00:10:19;101620;;;24.6;41.8
77954;BME280;67151;52.544;6.034;2023-05-07T00:10:34;101620;;;24.6;41.9
77954;BME280;67151;52.544;6.034;2023-05-07T00:10:49;101620;;;24.6;41.9
77954;BME280;67151;52.544;6.034;2023-05-07T00:11:04;101620;;;24.6;41.9
77954;BME280;67151;52.544;6.034;2023-05-07T00:11:19;101620;;;24.6;41.9
77954;BME280;67151;52.544;6.034;2023-05-07T00:11:34;101620;;;24.6;41.9
77954;BME280;67151;52.544;6.034;2023-05-07T00:11:49;101620;;;24.6;41.9
77954;BME280;67151;52.544;6.034;2023-05-07T00:12:04;101620;;;24.6;41.9
77954;BME280;67151;52.544;6.034;2023-05-07T00:12:19;101630;;;24.6;41.9
77954;BME280;67151;52.544;6.034;2023-05-07T00:12:34;101620;;;24.6;41.9
77954;BME280;67151;52.544;6.034;2023-05-07T00:12:49;101630;;;24.6;41.9
77954;BME280;67151;52.544;6.034;2023-05-07T00:13:04;101630;;;24.6;41.9
77954;BME280;67151;52.544;6.034;2023-05-07T00:13:19;101620;;;24.6;41.9
77954;BME280;67151;52.544;6.034;2023-05-07T00:13:34;101620;;;24.6;41.9
77954;BME280;67151;52.544;6.034;2023-05-07T00:13:49;101620;;;24.6;41.9
77954;BME280;67151;52.544;6.034;2023-05-07T00:14:04;101630;;;24.6;41.9
77954;BME280;67151;52.544;6.034;2023-05-07T00:14:19;101620;;;24.5;41.9
77954;BME280;67151;52.544;6.034;2023-05-07T00:14:34;101620;;;24.6;41.9
77954;BME280;67151;52.544;6.034;2023-05-07T00:14:49;101630;;;24.5;41.9
77954;BME280;67151;52.544;6.034;2023-05-07T00:15:04;101620;;;24.5;41.9
77954;BME280;67151;52.544;6.034;2023-05-07T00:15:19;101610;;;24.5;41.9
77954;BME280;67151;52.544;6.034;2023-05-07T00:15:34;101620;;;24.5;41.9
77954;BME280;67151;52.544;6.034;2023-05-07T00:15:49;101630;;;24.6;41.9
77954;BME280;67151;52.544;6.034;2023-05-07T00:16:04;101620;;;24.5;41.9
77954;BME280;67151;52.544;6.034;2023-05-07T00:16:19;101620;;;24.5;41.9
77954;BME280;67151;52.544;6.034;2023-05-07T00:16:34;101630;;;24.5;41.9
77954;BME280;67151;52.544;6.034;2023-05-07T00:16:49;101620;;;24.6;41.9
77954;BME280;67151;52.544;6.034;2023-05-07T00:17:04;101620;;;24.6;41.9
77954;BME280;67151;52.544;6.034;2023-05-07T00:17:19;101630;;;24.6;41.9
77954;BME280;67151;52.544;6.034;2023-05-07T00:17:34;101630;;;24.5;42
77954;BME280;67151;52.544;6.034;2023-05-07T00:17:49;101630;;;24.5;41.9
77954;BME280;67151;52.544;6.034;2023-05-07T00:18:04;101620;;;24.5;42
77954;BME280;67151;52.544;6.034;2023-05-07T00:18:19;101620;;;24.5;42
77954;BME280;67151;52.544;6.034;2023-05-07T00:18:34;101630;;;24.5;41.9
77954;BME280;67151;52.544;6.034;2023-05-07T00:18:49;101620;;;24.6;41.9
77954;BME280;67151;52.544;6.034;2023-05-07T00:19:04;101620;;;24.5;41.9
77954;BME280;67151;52.544;6.034;2023-05-07T00:19:19;101620;;;24.5;41.9
77954;BME280;67151;52.544;6.034;2023-05-07T00:19:34;101620;;;24.6;41.9
77954;BME280;67151;52.544;6.034;2023-05-07T00:19:49;101620;;;24.6;41.9
77954;BME280;67151;52.544;6.034;2023-05-07T00:20:04;101620;;;24.6;41.9
77954;BME280;67151;52.544;6.034;2023-05-07T00:20:19;101620;;;24.5;41.9
77954;BME280;67151;52.544;6.034;2023-05-07T00:20:34;101620;;;24.5;41.9
77954;BME280;67151;52.544;6.034;2023-05-07T00:20:49;101620;;;24.5;41.9
77954;BME280;67151;52.544;6.034;2023-05-07T00:21:04;101620;;;24.5;42
77954;BME280;67151;52.544;6.034;2023-05-07T00:21:19;101620;;;24.5;42
77954;BME280;67151;52.544;6.034;2023-05-07T00:21:34;101630;;;24.5;42
77954;BME280;67151;52.544;6.034;2023-05-07T00:21:49;101630;;;24.6;41.9
77954;BME280;67151;52.544;6.034;2023-05-07T00:22:04;101620;;;24.6;41.9
77954;BME280;67151;52.544;6.034;2023-05-07T00:22:19;101620;;;24.5;41.9
77954;BME280;67151;52.544;6.034;2023-05-07T00:22:34;101620;;;24.5;41.9
77954;BME280;67151;52.544;6.034;2023-05-07T00:22:49;101620;;;24.5;41.9
77954;BME280;67151;52.544;6.034;2023-05-07T00:23:04;101620;;;24.5;41.9
77954;BME280;67151;52.544;6.034;2023-05-07T00:23:19;101620;;;24.6;41.9
77954;BME280;67151;52.544;6.034;2023-05-07T00:23:34;101620;;;24.6;41.9
77954;BME280;67151;52.544;6.034;2023-05-07T00:23:49;101620;;;24.6;41.9
77954;BME280;67151;52.544;6.034;2023-05-07T00:24:04;101620;;;24.5;41.9
77954;BME280;67151;52.544;6.034;2023-05-07T00:24:19;101620;;;24.6;41.9
77954;BME280;67151;52.544;6.034;2023-05-07T00:24:34;101620;;;24.6;41.9
77954;BME280;67151;52.544;6.034;2023-05-07T00:24:49;101620;;;24.6;41.9
77954;BME280;67151;52.544;6.034;2023-05-07T00:25:04;101620;;;24.6;41.9
77954;BME280;67151;52.544;6.034;2023-05-07T00:25:19;101620;;;24.5;41.9
77954;BME280;67151;52.544;6.034;2023-05-07T00:25:34;101620;;;24.6;41.9
77954;BME280;67151;52.544;6.034;2023-05-07T00:25:49;101620;;;24.6;41.9
77954;BME280;67151;52.544;6.034;2023-05-07T00:26:04;101620;;;24.6;41.9
77954;BME280;67151;52.544;6.034;2023-05-07T00:26:19;101620;;;24.5;41.9
77954;BME280;67151;52.544;6.034;2023-05-07T00:26:34;101620;;;24.5;41.9
77954;BME280;67151;52.544;6.034;2023-05-07T00:26:49;101620;;;24.5;41.9
77954;BME280;67151;52.544;6.034;2023-05-07T00:27:04;101620;;;24.5;41.9
77954;BME280;67151;52.544;6.034;2023-05-07T00:27:19;101620;;;24.5;42
77954;BME280;67151;52.544;6.034;2023-05-07T00:27:34;101620;;;24.5;41.9
77954;BME280;67151;52.544;6.034;2023-05-07T00:27:49;101620;;;24.5;41.9
77954;BME280;67151;52.544;6.034;2023-05-07T00:28:04;101620;;;24.5;41.9
77954;BME280;67151;52.544;6.034;2023-05-07T00:28:20;101620;;;24.5;42
77954;BME280;67151;52.544;6.034;2023-05-07T00:28:34;101620;;;24.5;41.9
77954;BME280;67151;52.544;6.034;2023-05-07T00:28:49;101610;;;24.5;41.9
77954;BME280;67151;52.544;6.034;2023-05-07T00:29:04;101620;;;24.5;41.9
77954;BME280;67151;52.544;6.034;2023-05-07T00:29:19;101620;;;24.5;41.9
77954;BME280;67151;52.544;6.034;2023-05-07T00:29:34;101620;;;24.5;41.9
77954;BME280;67151;52.544;6.034;2023-05-07T00:29:49;101620;;;24.5;41.9
77954;BME280;67151;52.544;6.034;2023-05-07T00:30:04;101620;;;24.5;42
77954;BME280;67151;52.544;6.034;2023-05-07T00:30:19;101620;;;24.5;42
77954;BME280;67151;52.544;6.034;2023-05-07T00:30:34;101630;;;24.5;42
77954;BME280;67151;52.544;6.034;2023-05-07T00:30:49;101620;;;24.5;42
77954;BME280;67151;52.544;6.034;2023-05-07T00:31:04;101630;;;24.5;41.9
77954;BME280;67151;52.544;6.034;2023-05-07T00:31:19;101630;;;24.5;42
77954;BME280;67151;52.544;6.034;2023-05-07T00:31:34;101620;;;24.5;41.9
77954;BME280;67151;52.544;6.034;2023-05-07T00:31:49;101620;;;24.5;41.9
77954;BME280;67151;52.544;6.034;2023-05-07T00:32:04;101620;;;24.5;41.9
77954;BME280;67151;52.544;6.034;2023-05-07T00:32:19;101620;;;24.5;41.9
77954;BME280;67151;52.544;6.034;2023-05-07T00:32:34;101630;;;24.5;41.9
77954;BME280;67151;52.544;6.034;2023-05-07T00:32:49;101620;;;24.5;41.9
77954;BME280;67151;52.544;6.034;2023-05-07T00:33:04;101620;;;24.5;41.9
77954;BME280;67151;52.544;6.034;2023-05-07T00:33:19;101620;;;24.5;41.9
77954;BME280;67151;52.544;6.034;2023-05-07T00:33:34;101620;;;24.5;42
77954;BME280;67151;52.544;6.034;2023-05-07T00:33:49;101620;;;24.5;41.9
77954;BME280;67151;52.544;6.034;2023-05-07T00:34:04;101620;;;24.5;42
77954;BME280;67151;52.544;6.034;2023-05-07T00:34:19;101630;;;24.5;41.9
77954;BME280;67151;52.544;6.034;2023-05-07T00:34:34;101620;;;24.5;41.9
77954;BME280;67151;52.544;6.034;2023-05-07T00:34:49;101630;;;24.5;41.9
77954;BME280;67151;52.544;6.034;2023-05-07T00:35:04;101620;;;24.5;41.9
77954;BME280;67151;52.544;6.034;2023-05-07T00:35:19;101620;;;24.6;41.9
77954;BME280;67151;52.544;6.034;2023-05-07T00:35:34;101620;;;24.5;41.9
77954;BME280;67151;52.544;6.034;2023-05-07T00:35:49;101620;;;24.5;41.9
77954;BME280;67151;52.544;6.034;2023-05-07T00:36:04;101620;;;24.5;41.9
77954;BME280;67151;52.544;6.034;2023-05-07T00:36:19;101620;;;24.5;41.9
77954;BME280;67151;52.544;6.034;2023-05-07T00:36:34;101620;;;24.6;41.9
77954;BME280;67151;52.544;6.034;2023-05-07T00:36:49;101620;;;24.5;41.9
77954;BME280;67151;52.544;6.034;2023-05-07T00:37:04;101620;;;24.5;41.9
77954;BME280;67151;52.544;6.034;2023-05-07T00:37:19;101620;;;24.6;41.9
77954;BME280;67151;52.544;6.034;2023-05-07T00:37:34;101620;;;24.5;41.9
77954;BME280;67151;52.544;6.034;2023-05-07T00:37:49;101610;;;24.5;41.9
77954;BME280;67151;52.544;6.034;2023-05-07T00:38:04;101620;;;24.5;41.9
77954;BME280;67151;52.544;6.034;2023-05-07T00:38:19;101620;;;24.5;41.9
77954;BME280;67151;52.544;6.034;2023-05-07T00:38:34;101620;;;24.5;41.9
77954;BME280;67151;52.544;6.034;2023-05-07T00:38:49;101620;;;24.5;41.9
77954;BME280;67151;52.544;6.034;2023-05-07T00:39:04;101620;;;24.5;41.9
77954;BME280;67151;52.544;6.034;2023-05-07T00:39:19;101610;;;24.5;41.9
77954;BME280;67151;52.544;6.034;2023-05-07T00:39:34;101620;;;24.5;41.9
77954;BME280;67151;52.544;6.034;2023-05-07T00:39:49;101620;;;24.5;41.9
77954;BME280;67151;52.544;6.034;2023-05-07T00:40:05;101610;;;24.5;41.9
77954;BME280;67151;52.544;6.034;2023-05-07T00:40:19;101610;;;24.5;41.9
77954;BME280;67151;52.544;6.034;2023-05-07T00:40:34;101610;;;24.5;41.9
77954;BME280;67151;52.544;6.034;2023-05-07T00:40:49;101610;;;24.5;41.9
77954;BME280;67151;52.544;6.034;2023-05-07T00:41:04;101610;;;24.5;41.9
77954;BME280;67151;52.544;6.034;2023-05-07T00:41:19;101610;;;24.5;41.9
77954;BME280;67151;52.544;6.034;2023-05-07T00:41:34;101620;;;24.5;42
77954;BME280;67151;52.544;6.034;2023-05-07T00:41:49;101610;;;24.5;41.9
77954;BME280;67151;52.544;6.034;2023-05-07T00:42:04;101610;;;24.5;41.9
77954;BME280;67151;52.544;6.034;2023-05-07T00:42:19;101610;;;24.5;42
77954;BME280;67151;52.544;6.034;2023-05-07T00:42:34;101610;;;24.5;41.9
77954;BME280;67151;52.544;6.034;2023-05-07T00:42:49;101610;;;24.5;41.9
77954;BME280;67151;52.544;6.034;2023-05-07T00:43:04;101610;;;24.5;41.9
77954;BME280;67151;52.544;6.034;2023-05-07T00:43:19;101620;;;24.5;41.9
77954;BME280;67151;52.544;6.034;2023-05-07T00:43:34;101610;;;24.5;41.9
77954;BME280;67151;52.544;6.034;2023-05-07T00:43:49;101610;;;24.6;41.9
77954;BME280;67151;52.544;6.034;2023-05-07T00:44:04;101610;;;24.6;41.9
77954;BME280;67151;52.544;6.034;2023-05-07T00:44:19;101610;;;24.6;41.8
77954;BME280;67151;52.544;6.034;2023-05-07T00:44:34;101610;;;24.6;41.8
77954;BME280;67151;52.544;6.034;2023-05-07T00:44:49;101610;;;24.6;41.8
77954;BME280;67151;52.544;6.034;2023-05-07T00:45:04;101600;;;24.6;41.8
77954;BME280;67151;52.544;6.034;2023-05-07T00:45:19;101610;;;24.6;41.8
77954;BME280;67151;52.544;6.034;2023-05-07T00:45:34;101610;;;24.6;41.8
77954;BME280;67151;52.544;6.034;2023-05-07T00:45:49;101610;;;24.6;41.7
77954;BME280;67151;52.544;6.034;2023-05-07T00:46:04;101610;;;24.6;41.7
77954;BME280;67151;52.544;6.034;2023-05-07T00:46:19;101620;;;24.7;41.7
77954;BME280;67151;52.544;6.034;2023-05-07T00:46:34;101620;;;24.7;41.7
77954;BME280;67151;52.544;6.034;2023-05-07T00:46:49;101610;;;24.6;41.7
77954;BME280;67151;52.544;6.034;2023-05-07T00:47:04;101610;;;24.6;41.7
77954;BME280;67151;52.544;6.034;2023-05-07T00:47:19;101600;;;24.7;41.6
77954;BME280;67151;52.544;6.034;2023-05-07T00:47:34;101610;;;24.7;41.6
77954;BME280;67151;52.544;6.034;2023-05-07T00:47:49;101610;;;24.7;41.6
77954;BME280;67151;52.544;6.034;2023-05-07T00:48:04;101610;;;24.7;41.5
77954;BME280;67151;52.544;6.034;2023-05-07T00:48:19;101600;;;24.7;41.5
77954;BME280;67151;52.544;6.034;2023-05-07T00:48:34;101610;;;24.7;41.5
77954;BME280;67151;52.544;6.034;2023-05-07T00:48:49;101610;;;24.7;41.5
77954;BME280;67151;52.544;6.034;2023-05-07T00:49:04;101610;;;24.7;41.5
77954;BME280;67151;52.544;6.034;2023-05-07T00:49:19;101610;;;24.7;41.4
77954;BME280;67151;52.544;6.034;2023-05-07T00:49:35;101610;;;24.8;41.4
77954;BME280;67151;52.544;6.034;2023-05-07T00:49:49;101600;;;24.8;41.4
77954;BME280;67151;52.544;6.034;2023-05-07T00:50:04;101610;;;24.8;41.4
77954;BME280;67151;52.544;6.034;2023-05-07T00:50:19;101600;;;24.8;41.4
77954;BME280;67151;52.544;6.034;2023-05-07T00:50:34;101600;;;24.8;41.4
77954;BME280;67151;52.544;6.034;2023-05-07T00:50:49;101600;;;24.8;41.4
77954;BME280;67151;52.544;6.034;2023-05-07T00:51:04;101610;;;24.8;41.3
77954;BME280;67151;52.544;6.034;2023-05-07T00:51:19;101610;;;24.8;41.3
77954;BME280;67151;52.544;6.034;2023-05-07T00:51:34;101610;;;24.8;41.3
77954;BME280;67151;52.544;6.034;2023-05-07T00:51:49;101610;;;24.8;41.3
77954;BME280;67151;52.544;6.034;2023-05-07T00:52:05;101600;;;24.8;41.3
77954;BME280;67151;52.544;6.034;2023-05-07T00:52:19;101600;;;24.8;41.2
77954;BME280;67151;52.544;6.034;2023-05-07T00:52:34;101610;;;24.9;41.2
77954;BME280;67151;52.544;6.034;2023-05-07T00:52:49;101610;;;24.9;41.2
77954;BME280;67151;52.544;6.034;2023-05-07T00:53:04;101610;;;24.8;41.3
77954;BME280;67151;52.544;6.034;2023-05-07T00:53:19;101600;;;24.9;41.2
77954;BME280;67151;52.544;6.034;2023-05-07T00:53:34;101600;;;24.9;41.2
77954;BME280;67151;52.544;6.034;2023-05-07T00:53:49;101600;;;24.9;41.2
77954;BME280;67151;52.544;6.034;2023-05-07T00:54:04;101610;;;24.9;41.2
77954;BME280;67151;52.544;6.034;2023-05-07T00:54:19;101610;;;24.9;41.2
77954;BME280;67151;52.544;6.034;2023-05-07T00:54:34;101610;;;24.9;41.2
77954;BME280;67151;52.544;6.034;2023-05-07T00:54:49;101610;;;24.9;41.1
77954;BME280;67151;52.544;6.034;2023-05-07T00:55:05;101610;;;24.9;41.1
77954;BME280;67151;52.544;6.034;2023-05-07T00:55:19;101610;;;24.9;41.2
77954;BME280;67151;52.544;6.034;2023-05-07T00:55:34;101600;;;24.9;41.2
77954;BME280;67151;52.544;6.034;2023-05-07T00:55:49;101600;;;24.9;41.2
77954;BME280;67151;52.544;6.034;2023-05-07T00:56:04;101600;;;24.9;41.2
77954;BME280;67151;52.544;6.034;2023-05-07T00:56:20;101610;;;24.9;41.2
77954;BME280;67151;52.544;6.034;2023-05-07T00:56:34;101620;;;24.9;41.2
77954;BME280;67151;52.544;6.034;2023-05-07T00:56:49;101610;;;24.9;41.2
77954;BME280;67151;52.544;6.034;2023-05-07T00:57:04;101610;;;24.9;41.2
77954;BME280;67151;52.544;6.034;2023-05-07T00:57:19;101610;;;24.9;41.2
77954;BME280;67151;52.544;6.034;2023-05-07T00:57:35;101610;;;24.9;41.2
77954;BME280;67151;52.544;6.034;2023-05-07T00:57:49;101610;;;24.8;41.2
77954;BME280;67151;52.544;6.034;2023-05-07T00:58:04;101610;;;24.8;41.3
77954;BME280;67151;52.544;6.034;2023-05-07T00:58:19;101610;;;24.8;41.3
77954;BME280;67151;52.544;6.034;2023-05-07T00:58:34;101610;;;24.8;41.3
77954;BME280;67151;52.544;6.034;2023-05-07T00:58:49;101600;;;24.8;41.3
77954;BME280;67151;52.544;6.034;2023-05-07T00:59:04;101610;;;24.8;41.3
77954;BME280;67151;52.544;6.034;2023-05-07T00:59:19;101610;;;24.8;41.3
77954;BME280;67151;52.544;6.034;2023-05-07T00:59:34;101610;;;24.8;41.3
77954;BME280;67151;52.544;6.034;2023-05-07T00:59:49;101610;;;24.8;41.4
77954;BME280;67151;52.544;6.034;2023-05-07T01:00:04;101610;;;24.8;41.4
77954;BME280;67151;52.544;6.034;2023-05-07T01:00:19;101600;;;24.8;41.4
77954;BME280;67151;52.544;6.034;2023-05-07T01:00:34;101610;;;24.8;41.4
77954;BME280;67151;52.544;6.034;2023-05-07T01:00:49;101600;;;24.8;41.4
77954;BME280;67151;52.544;6.034;2023-05-07T01:01:04;101600;;;24.8;41.4
77954;BME280;67151;52.544;6.034;2023-05-07T01:01:19;101600;;;24.8;41.4
77954;BME280;67151;52.544;6.034;2023-05-07T01:01:34;101610;;;24.8;41.4
77954;BME280;67151;52.544;6.034;2023-05-07T01:01:49;101610;;;24.7;41.4
77954;BME280;67151;52.544;6.034;2023-05-07T01:02:04;101610;;;24.7;41.4
77954;BME280;67151;52.544;6.034;2023-05-07T01:02:19;101610;;;24.7;41.5
77954;BME280;67151;52.544;6.034;2023-05-07T01:02:34;101610;;;24.7;41.5
77954;BME280;67151;52.544;6.034;2023-05-07T01:02:49;101610;;;24.7;41.5
77954;BME280;67151;52.544;6.034;2023-05-07T01:03:04;101600;;;24.7;41.5
77954;BME280;67151;52.544;6.034;2023-05-07T01:03:19;101610;;;24.7;41.5
77954;BME280;67151;52.544;6.034;2023-05-07T01:03:34;101610;;;24.7;41.6
77954;BME280;67151;52.544;6.034;2023-05-07T01:03:49;101600;;;24.7;41.5
77954;BME280;67151;52.544;6.034;2023-05-07T01:04:04;101610;;;24.7;41.5
77954;BME280;67151;52.544;6.034;2023-05-07T01:04:19;101610;;;24.7;41.6
77954;BME280;67151;52.544;6.034;2023-05-07T01:04:34;101600;;;24.7;41.5
77954;BME280;67151;52.544;6.034;2023-05-07T01:04:49;101600;;;24.7;41.5
77954;BME280;67151;52.544;6.034;2023-05-07T01:05:04;101600;;;24.7;41.6
77954;BME280;67151;52.544;6.034;2023-05-07T01:05:19;101600;;;24.7;41.6
77954;BME280;67151;52.544;6.034;2023-05-07T01:05:34;101600;;;24.7;41.6
77954;BME280;67151;52.544;6.034;2023-05-07T01:05:49;101600;;;24.7;41.6
77954;BME280;67151;52.544;6.034;2023-05-07T01:06:04;101600;;;24.6;41.6
77954;BME280;67151;52.544;6.034;2023-05-07T01:06:19;101600;;;24.6;41.6
77954;BME280;67151;52.544;6.034;2023-05-07T01:06:34;101600;;;24.6;41.6
77954;BME280;67151;52.544;6.034;2023-05-07T01:06:49;101600;;;24.6;41.6
77954;BME280;67151;52.544;6.034;2023-05-07T01:07:04;101600;;;24.7;41.6
77954;BME280;67151;52.544;6.034;2023-05-07T01:07:19;101600;;;24.6;41.6
77954;BME280;67151;52.544;6.034;2023-05-07T01:07:34;101600;;;24.6;41.6
77954;BME280;67151;52.544;6.034;2023-05-07T01:07:49;101600;;;24.6;41.6
77954;BME280;67151;52.544;6.034;2023-05-07T01:08:04;101600;;;24.6;41.6
77954;BME280;67151;52.544;6.034;2023-05-07T01:08:19;101590;;;24.6;41.6
77954;BME280;67151;52.544;6.034;2023-05-07T01:08:34;101600;;;24.6;41.6
77954;BME280;67151;52.544;6.034;2023-05-07T01:08:49;101590;;;24.6;41.6
77954;BME280;67151;52.544;6.034;2023-05-07T01:09:04;101590;;;24.6;41.6
77954;BME280;67151;52.544;6.034;2023-05-07T01:09:19;101600;;;24.6;41.7
77954;BME280;67151;52.544;6.034;2023-05-07T01:09:34;101600;;;24.6;41.7
77954;BME280;67151;52.544;6.034;2023-05-07T01:09:49;101590;;;24.6;41.7
77954;BME280;67151;52.544;6.034;2023-05-07T01:10:04;101590;;;24.6;41.8
77954;BME280;67151;52.544;6.034;2023-05-07T01:10:19;101590;;;24.6;41.7
77954;BME280;67151;52.544;6.034;2023-05-07T01:10:34;101590;;;24.6;41.8
77954;BME280;67151;52.544;6.034;2023-05-07T01:10:49;101600;;;24.6;41.7
77954;BME280;67151;52.544;6.034;2023-05-07T01:11:04;101600;;;24.6;41.8
77954;BME280;67151;52.544;6.034;2023-05-07T01:11:19;101590;;;24.6;41.7
77954;BME280;67151;52.544;6.034;2023-05-07T01:11:34;101590;;;24.6;41.7
77954;BME280;67151;52.544;6.034;2023-05-07T01:11:49;101590;;;24.6;41.7
77954;BME280;67151;52.544;6.034;2023-05-07T01:12:04;101590;;;24.6;41.7
77954;BME280;67151;52.544;6.034;2023-05-07T01:12:19;101590;;;24.6;41.8
77954;BME280;67151;52.544;6.034;2023-05-07T01:12:34;101600;;;24.6;41.7
77954;BME280;67151;52.544;6.034;2023-05-07T01:12:49;101600;;;24.6;41.8
77954;BME280;67151;52.544;6.034;2023-05-07T01:13:04;101590;;;24.6;41.8
77954;BME280;67151;52.544;6.034;2023-05-07T01:13:19;101590;;;24.6;41.7
77954;BME280;67151;52.544;6.034;2023-05-07T01:13:34;101590;;;24.6;41.8
77954;BME280;67151;52.544;6.034;2023-05-07T01:13:49;101590;;;24.6;41.8
77954;BME280;67151;52.544;6.034;2023-05-07T01:14:04;101590;;;24.6;41.8
77954;BME280;67151;52.544;6.034;2023-05-07T01:14:19;101590;;;24.6;41.8
77954;BME280;67151;52.544;6.034;2023-05-07T01:14:34;101590;;;24.6;41.8
77954;BME280;67151;52.544;6.034;2023-05-07T01:14:49;101590;;;24.6;41.8
77954;BME280;67151;52.544;6.034;2023-05-07T01:15:04;101600;;;24.6;41.8
77954;BME280;67151;52.544;6.034;2023-05-07T01:15:19;101600;;;24.5;41.8
77954;BME280;67151;52.544;6.034;2023-05-07T01:15:34;101590;;;24.5;41.8
77954;BME280;67151;52.544;6.034;2023-05-07T01:15:49;101590;;;24.5;41.8
77954;BME280;67151;52.544;6.034;2023-05-07T01:16:04;101600;;;24.6;41.8
77954;BME280;67151;52.544;6.034;2023-05-07T01:16:19;101590;;;24.6;41.8
77954;BME280;67151;52.544;6.034;2023-05-07T01:16:34;101600;;;24.6;41.8
77954;BME280;67151;52.544;6.034;2023-05-07T01:16:49;101590;;;24.6;41.8
77954;BME280;67151;52.544;6.034;2023-05-07T01:17:04;101600;;;24.6;41.8
77954;BME280;67151;52.544;6.034;2023-05-07T01:17:19;101600;;;24.6;41.8
77954;BME280;67151;52.544;6.034;2023-05-07T01:17:34;101600;;;24.6;41.8
77954;BME280;67151;52.544;6.034;2023-05-07T01:17:49;101600;;;24.6;41.8
77954;BME280;67151;52.544;6.034;2023-05-07T01:18:04;101600;;;24.6;41.8
77954;BME280;67151;52.544;6.034;2023-05-07T01:18:19;101600;;;24.5;41.9
77954;BME280;67151;52.544;6.034;2023-05-07T01:18:34;101590;;;24.5;41.8
77954;BME280;67151;52.544;6.034;2023-05-07T01:18:49;101600;;;24.5;41.8
77954;BME280;67151;52.544;6.034;2023-05-07T01:19:04;101590;;;24.5;41.8
77954;BME280;67151;52.544;6.034;2023-05-07T01:19:19;101600;;;24.5;41.8
77954;BME280;67151;52.544;6.034;2023-05-07T01:19:34;101600;;;24.5;41.8
77954;BME280;67151;52.544;6.034;2023-05-07T01:19:49;101600;;;24.5;41.8
77954;BME280;67151;52.544;6.034;2023-05-07T01:20:04;101590;;;24.5;41.8
77954;BME280;67151;52.544;6.034;2023-05-07T01:20:19;101590;;;24.5;41.9
77954;BME280;67151;52.544;6.034;2023-05-07T01:20:34;101590;;;24.5;41.8
77954;BME280;67151;52.544;6.034;2023-05-07T01:20:49;101590;;;24.5;41.8
77954;BME280;67151;52.544;6.034;2023-05-07T01:21:04;101590;;;24.5;41.8
77954;BME280;67151;52.544;6.034;2023-05-07T01:21:19;101590;;;24.5;41.8
77954;BME280;67151;52.544;6.034;2023-05-07T01:21:34;101600;;;24.5;41.8
77954;BME280;67151;52.544;6.034;2023-05-07T01:21:49;101590;;;24.5;41.9
77954;BME280;67151;52.544;6.034;2023-05-07T01:22:07;101590;;;24.5;42.2
77954;BME280;67151;52.544;6.034;2023-05-07T01:22:24;101590;;;24.5;41.8
77954;BME280;67151;52.544;6.034;2023-05-07T01:22:34;101600;;;24.5;41.8
77954;BME280;67151;52.544;6.034;2023-05-07T01:22:49;101590;;;24.5;41.9
77954;BME280;67151;52.544;6.034;2023-05-07T01:23:04;101590;;;24.5;41.9
77954;BME280;67151;52.544;6.034;2023-05-07T01:23:19;101600;;;24.5;41.8
77954;BME280;67151;52.544;6.034;2023-05-07T01:23:34;101590;;;24.5;41.9
77954;BME280;67151;52.544;6.034;2023-05-07T01:23:49;101590;;;24.5;41.9
77954;BME280;67151;52.544;6.034;2023-05-07T01:24:04;101600;;;24.5;41.9